CheckWX is a tool to help pilots better visualize weather data.  It is not intended as a substitute for an official pre-flight weather briefing.

03:44:11 UTC

KHZL METAR
Hazleton Regional Airport
Hazleton, Pennsylvania, USA
Current

9 mins ago

KHZL 020335Z AUTO 00000KT 10SM CLR 07/04 A3017 RMK AO2
Observed
Jun-2 @ 03:35 UTC
Visibility
Flight Rules
VFR
Cloud Levels
  • Clear skies
Temperature
C / 45°F
Dewpoint
C / 39°F
Humidity
81%
Altimeter
30.17" Hg
Pressure
1021.72 hPa
Previous

28 mins ago

KHZL 020316Z AUTO 00000KT 10SM CLR 08/04 A3017 RMK AO2
Observed
Jun-2 @ 03:16 UTC
Visibility
Flight Rules
VFR
Cloud Levels
  • Clear skies
Temperature
C / 46°F
Dewpoint
C / 39°F
Humidity
76%
Altimeter
30.17" Hg
Pressure
1021.72 hPa
Previous

48 mins ago

KHZL 020256Z AUTO 00000KT 10SM CLR 08/04 A3017 RMK AO2
Observed
Jun-2 @ 02:56 UTC
Visibility
Flight Rules
VFR
Cloud Levels
  • Clear skies
Temperature
C / 46°F
Dewpoint
C / 39°F
Humidity
76%
Altimeter
30.17" Hg
Pressure
1021.72 hPa